sensor_id;sensor_type;location;lat;lon;timestamp;pressure;altitude;pressure_sealevel;temperature;humidity
63556;BME280;49700;48.072;7.800;2023-11-19T00:01:22;99618.59;;;11.57;nan
63556;BME280;49700;48.072;7.800;2023-11-19T00:03:48;99626.50;;;11.57;nan
63556;BME280;49700;48.072;7.800;2023-11-19T00:06:14;99629.00;;;11.58;nan
63556;BME280;49700;48.072;7.800;2023-11-19T00:08:42;99618.38;;;11.60;nan
63556;BME280;49700;48.072;7.800;2023-11-19T00:11:09;99594.41;;;11.64;nan
63556;BME280;49700;48.072;7.800;2023-11-19T00:13:34;99589.78;;;11.68;nan
63556;BME280;49700;48.072;7.800;2023-11-19T00:16:00;99583.53;;;11.69;nan
63556;BME280;49700;48.072;7.800;2023-11-19T00:18:25;99582.50;;;11.71;nan
63556;BME280;49700;48.072;7.800;2023-11-19T00:20:50;99576.31;;;11.72;nan
63556;BME280;49700;48.072;7.800;2023-11-19T00:23:16;99551.88;;;11.70;nan
63556;BME280;49700;48.072;7.800;2023-11-19T00:25:41;99568.63;;;11.69;nan
63556;BME280;49700;48.072;7.800;2023-11-19T00:28:07;99565.47;;;11.64;nan
63556;BME280;49700;48.072;7.800;2023-11-19T00:30:32;99549.56;;;11.66;nan
63556;BME280;49700;48.072;7.800;2023-11-19T00:32:58;99543.38;;;11.67;nan
63556;BME280;49700;48.072;7.800;2023-11-19T00:35:24;99555.56;;;11.68;nan
63556;BME280;49700;48.072;7.800;2023-11-19T00:37:50;99541.34;;;11.70;nan
63556;BME280;49700;48.072;7.800;2023-11-19T00:40:16;99535.78;;;11.75;nan
63556;BME280;49700;48.072;7.800;2023-11-19T00:42:43;99537.38;;;11.78;nan
63556;BME280;49700;48.072;7.800;2023-11-19T00:45:09;99539.88;;;11.79;nan
63556;BME280;49700;48.072;7.800;2023-11-19T00:47:35;99543.97;;;11.83;nan
63556;BME280;49700;48.072;7.800;2023-11-19T00:50:04;99549.81;;;11.88;nan
63556;BME280;49700;48.072;7.800;2023-11-19T00:52:30;99542.31;;;11.95;nan
63556;BME280;49700;48.072;7.800;2023-11-19T00:54:55;99537.34;;;12.03;nan
63556;BME280;49700;48.072;7.800;2023-11-19T00:57:22;99519.44;;;12.08;nan
63556;BME280;49700;48.072;7.800;2023-11-19T00:59:47;99525.22;;;12.13;nan
63556;BME280;49700;48.072;7.800;2023-11-19T01:02:13;99519.72;;;12.16;nan
63556;BME280;49700;48.072;7.800;2023-11-19T01:04:39;99512.44;;;12.20;nan
63556;BME280;49700;48.072;7.800;2023-11-19T01:07:05;99511.28;;;12.24;nan
63556;BME280;49700;48.072;7.800;2023-11-19T01:09:37;99507.44;;;12.28;nan
63556;BME280;49700;48.072;7.800;2023-11-19T01:12:03;99513.88;;;12.37;nan
63556;BME280;49700;48.072;7.800;2023-11-19T01:14:29;99522.25;;;12.42;nan
63556;BME280;49700;48.072;7.800;2023-11-19T01:16:56;99523.63;;;12.48;nan
63556;BME280;49700;48.072;7.800;2023-11-19T01:19:22;99513.69;;;12.51;nan
63556;BME280;49700;48.072;7.800;2023-11-19T01:21:48;99514.19;;;12.56;nan
63556;BME280;49700;48.072;7.800;2023-11-19T01:24:14;99520.91;;;12.60;nan
63556;BME280;49700;48.072;7.800;2023-11-19T01:26:40;99515.66;;;12.60;nan
63556;BME280;49700;48.072;7.800;2023-11-19T01:29:11;99514.47;;;12.65;nan
63556;BME280;49700;48.072;7.800;2023-11-19T01:31:40;99526.69;;;12.66;nan
63556;BME280;49700;48.072;7.800;2023-11-19T01:34:06;99523.31;;;12.63;nan
63556;BME280;49700;48.072;7.800;2023-11-19T01:36:32;99530.91;;;12.68;nan
63556;BME280;49700;48.072;7.800;2023-11-19T01:38:57;99550.91;;;12.71;nan
63556;BME280;49700;48.072;7.800;2023-11-19T01:41:23;99535.72;;;12.74;nan
63556;BME280;49700;48.072;7.800;2023-11-19T01:43:50;99528.53;;;12.76;nan
63556;BME280;49700;48.072;7.800;2023-11-19T01:46:15;99532.97;;;12.76;nan
63556;BME280;49700;48.072;7.800;2023-11-19T01:48:45;99536.56;;;12.75;nan
63556;BME280;49700;48.072;7.800;2023-11-19T01:51:12;99526.88;;;12.75;nan
63556;BME280;49700;48.072;7.800;2023-11-19T01:53:38;99527.69;;;12.76;nan
63556;BME280;49700;48.072;7.800;2023-11-19T01:56:05;99526.03;;;12.75;nan
63556;BME280;49700;48.072;7.800;2023-11-19T01:58:31;99522.66;;;12.73;nan
63556;BME280;49700;48.072;7.800;2023-11-19T02:00:57;99521.81;;;12.72;nan
63556;BME280;49700;48.072;7.800;2023-11-19T02:03:23;99508.75;;;12.71;nan
63556;BME280;49700;48.072;7.800;2023-11-19T02:05:51;99516.88;;;12.68;nan
63556;BME280;49700;48.072;7.800;2023-11-19T02:08:18;99510.16;;;12.63;nan
63556;BME280;49700;48.072;7.800;2023-11-19T02:10:44;99513.88;;;12.61;nan
63556;BME280;49700;48.072;7.800;2023-11-19T02:13:10;99516.84;;;12.56;nan
63556;BME280;49700;48.072;7.800;2023-11-19T02:15:36;99510.84;;;12.54;nan
63556;BME280;49700;48.072;7.800;2023-11-19T02:18:18;99515.38;;;12.52;nan
63556;BME280;49700;48.072;7.800;2023-11-19T02:20:44;99503.03;;;12.53;nan
63556;BME280;49700;48.072;7.800;2023-11-19T02:23:09;99509.25;;;12.52;nan
63556;BME280;49700;48.072;7.800;2023-11-19T02:25:36;99518.84;;;12.53;nan
63556;BME280;49700;48.072;7.800;2023-11-19T02:28:03;99528.44;;;12.54;nan
63556;BME280;49700;48.072;7.800;2023-11-19T02:30:30;99508.19;;;12.54;nan
63556;BME280;49700;48.072;7.800;2023-11-19T02:33:00;99503.66;;;12.56;nan
63556;BME280;49700;48.072;7.800;2023-11-19T02:35:31;99510.94;;;12.53;nan
63556;BME280;49700;48.072;7.800;2023-11-19T02:37:57;99517.41;;;12.49;nan
63556;BME280;49700;48.072;7.800;2023-11-19T02:40:24;99520.03;;;12.49;nan
63556;BME280;49700;48.072;7.800;2023-11-19T02:42:53;99523.72;;;12.46;nan
63556;BME280;49700;48.072;7.800;2023-11-19T02:45:22;99526.34;;;12.46;nan
63556;BME280;49700;48.072;7.800;2023-11-19T02:47:48;99533.44;;;12.46;nan
63556;BME280;49700;48.072;7.800;2023-11-19T02:50:13;99538.94;;;12.43;nan
63556;BME280;49700;48.072;7.800;2023-11-19T02:52:43;99525.13;;;12.39;nan
63556;BME280;49700;48.072;7.800;2023-11-19T02:55:12;99552.31;;;12.39;nan
63556;BME280;49700;48.072;7.800;2023-11-19T02:57:39;99544.41;;;12.39;nan
63556;BME280;49700;48.072;7.800;2023-11-19T03:00:17;99542.72;;;12.38;nan
63556;BME280;49700;48.072;7.800;2023-11-19T03:02:44;99535.88;;;12.36;nan
63556;BME280;49700;48.072;7.800;2023-11-19T03:05:19;99524.50;;;12.35;nan
63556;BME280;49700;48.072;7.800;2023-11-19T03:07:45;99531.44;;;12.36;nan
63556;BME280;49700;48.072;7.800;2023-11-19T03:10:10;99518.41;;;12.35;nan
63556;BME280;49700;48.072;7.800;2023-11-19T03:12:40;99535.25;;;12.32;nan
63556;BME280;49700;48.072;7.800;2023-11-19T03:15:06;99536.94;;;12.33;nan
63556;BME280;49700;48.072;7.800;2023-11-19T03:17:32;99536.09;;;12.33;nan
63556;BME280;49700;48.072;7.800;2023-11-19T03:19:59;99537.78;;;12.34;nan
63556;BME280;49700;48.072;7.800;2023-11-19T03:22:26;99539.25;;;12.38;nan
63556;BME280;49700;48.072;7.800;2023-11-19T03:24:51;99534.94;;;12.37;nan
63556;BME280;49700;48.072;7.800;2023-11-19T03:27:17;99541.88;;;12.38;nan
63556;BME280;49700;48.072;7.800;2023-11-19T03:29:42;99539.47;;;12.35;nan
63556;BME280;49700;48.072;7.800;2023-11-19T03:32:08;99535.03;;;12.35;nan
63556;BME280;49700;48.072;7.800;2023-11-19T03:34:34;99526.31;;;12.35;nan
63556;BME280;49700;48.072;7.800;2023-11-19T03:36:59;99538.28;;;12.39;nan
63556;BME280;49700;48.072;7.800;2023-11-19T03:39:24;99540.91;;;12.39;nan
63556;BME280;49700;48.072;7.800;2023-11-19T03:41:50;99535.66;;;12.39;nan
63556;BME280;49700;48.072;7.800;2023-11-19T03:44:16;99536.50;;;12.39;nan
63556;BME280;49700;48.072;7.800;2023-11-19T03:46:42;99532.09;;;12.40;nan
63556;BME280;49700;48.072;7.800;2023-11-19T03:49:07;99554.81;;;12.41;nan
63556;BME280;49700;48.072;7.800;2023-11-19T03:51:33;99540.59;;;12.44;nan
63556;BME280;49700;48.072;7.800;2023-11-19T03:54:00;99537.97;;;12.44;nan
63556;BME280;49700;48.072;7.800;2023-11-19T03:56:26;99538.78;;;12.44;nan
63556;BME280;49700;48.072;7.800;2023-11-19T03:58:52;99541.44;;;12.44;nan
63556;BME280;49700;48.072;7.800;2023-11-19T04:01:18;99536.16;;;12.44;nan
63556;BME280;49700;48.072;7.800;2023-11-19T04:03:43;99529.97;;;12.45;nan
63556;BME280;49700;48.072;7.800;2023-11-19T04:06:09;99541.19;;;12.47;nan
63556;BME280;49700;48.072;7.800;2023-11-19T04:08:35;99550.59;;;12.51;nan
63556;BME280;49700;48.072;7.800;2023-11-19T04:11:03;99554.28;;;12.49;nan
63556;BME280;49700;48.072;7.800;2023-11-19T04:13:29;99560.38;;;12.49;nan
63556;BME280;49700;48.072;7.800;2023-11-19T04:15:55;99543.66;;;12.50;nan
63556;BME280;49700;48.072;7.800;2023-11-19T04:18:20;99545.31;;;12.51;nan
63556;BME280;49700;48.072;7.800;2023-11-19T04:20:46;99552.25;;;12.52;nan
63556;BME280;49700;48.072;7.800;2023-11-19T04:23:12;99560.16;;;12.52;nan
63556;BME280;49700;48.072;7.800;2023-11-19T04:25:37;99553.09;;;12.53;nan
63556;BME280;49700;48.072;7.800;2023-11-19T04:28:03;99551.19;;;12.55;nan
63556;BME280;49700;48.072;7.800;2023-11-19T04:30:29;99537.91;;;12.56;nan
63556;BME280;49700;48.072;7.800;2023-11-19T04:32:57;99541.38;;;12.57;nan
63556;BME280;49700;48.072;7.800;2023-11-19T04:35:22;99535.88;;;12.60;nan
63556;BME280;49700;48.072;7.800;2023-11-19T04:37:47;99541.06;;;12.61;nan
63556;BME280;49700;48.072;7.800;2023-11-19T04:40:13;99541.75;;;12.63;nan
63556;BME280;49700;48.072;7.800;2023-11-19T04:42:38;99551.38;;;12.65;nan
63556;BME280;49700;48.072;7.800;2023-11-19T04:45:07;99550.19;;;12.69;nan
63556;BME280;49700;48.072;7.800;2023-11-19T04:47:35;99543.84;;;12.71;nan
63556;BME280;49700;48.072;7.800;2023-11-19T04:50:02;99561.22;;;12.74;nan
63556;BME280;49700;48.072;7.800;2023-11-19T04:52:27;99559.22;;;12.77;nan
63556;BME280;49700;48.072;7.800;2023-11-19T04:54:52;99560.81;;;12.80;nan
63556;BME280;49700;48.072;7.800;2023-11-19T04:57:18;99553.59;;;12.82;nan
63556;BME280;49700;48.072;7.800;2023-11-19T04:59:43;99562.84;;;12.88;nan
63556;BME280;49700;48.072;7.800;2023-11-19T05:02:09;99555.66;;;12.90;nan
63556;BME280;49700;48.072;7.800;2023-11-19T05:04:34;99555.56;;;12.91;nan
63556;BME280;49700;48.072;7.800;2023-11-19T05:07:00;99554.38;;;12.95;nan
63556;BME280;49700;48.072;7.800;2023-11-19T05:09:26;99546.38;;;12.97;nan
63556;BME280;49700;48.072;7.800;2023-11-19T05:11:51;99549.59;;;13.00;nan
63556;BME280;49700;48.072;7.800;2023-11-19T05:14:17;99548.53;;;13.03;nan
63556;BME280;49700;48.072;7.800;2023-11-19T05:16:43;99553.56;;;13.06;nan
63556;BME280;49700;48.072;7.800;2023-11-19T05:19:09;99555.28;;;13.07;nan
63556;BME280;49700;48.072;7.800;2023-11-19T05:21:34;99556.84;;;13.10;nan
63556;BME280;49700;48.072;7.800;2023-11-19T05:24:01;99557.44;;;13.13;nan
63556;BME280;49700;48.072;7.800;2023-11-19T05:26:30;99546.75;;;13.15;nan
63556;BME280;49700;48.072;7.800;2023-11-19T05:28:56;99543.78;;;13.19;nan
63556;BME280;49700;48.072;7.800;2023-11-19T05:31:21;99545.34;;;13.22;nan
63556;BME280;49700;48.072;7.800;2023-11-19T05:33:46;99533.84;;;13.23;nan
63556;BME280;49700;48.072;7.800;2023-11-19T05:36:12;99544.28;;;13.24;nan
63556;BME280;49700;48.072;7.800;2023-11-19T05:38:38;99535.22;;;13.28;nan
63556;BME280;49700;48.072;7.800;2023-11-19T05:41:04;99528.97;;;13.30;nan
63556;BME280;49700;48.072;7.800;2023-11-19T05:43:30;99539.41;;;13.31;nan
63556;BME280;49700;48.072;7.800;2023-11-19T05:45:55;99537.72;;;13.30;nan
63556;BME280;49700;48.072;7.800;2023-11-19T05:48:21;99533.19;;;13.32;nan
63556;BME280;49700;48.072;7.800;2023-11-19T05:50:46;99538.47;;;13.32;nan
63556;BME280;49700;48.072;7.800;2023-11-19T05:53:15;99539.91;;;13.36;nan
63556;BME280;49700;48.072;7.800;2023-11-19T05:55:40;99534.50;;;13.38;nan
63556;BME280;49700;48.072;7.800;2023-11-19T05:58:14;99539.66;;;13.39;nan
63556;BME280;49700;48.072;7.800;2023-11-19T06:00:39;99536.06;;;13.40;nan
63556;BME280;49700;48.072;7.800;2023-11-19T06:03:06;99545.66;;;13.41;nan
63556;BME280;49700;48.072;7.800;2023-11-19T06:05:32;99562.22;;;13.43;nan
63556;BME280;49700;48.072;7.800;2023-11-19T06:07:57;99561.25;;;13.44;nan
63556;BME280;49700;48.072;7.800;2023-11-19T06:10:22;99556.72;;;13.46;nan
63556;BME280;49700;48.072;7.800;2023-11-19T06:12:54;99545.22;;;13.47;nan
63556;BME280;49700;48.072;7.800;2023-11-19T06:15:21;99552.16;;;13.48;nan
63556;BME280;49700;48.072;7.800;2023-11-19T06:17:46;99540.63;;;13.49;nan
63556;BME280;49700;48.072;7.800;2023-11-19T06:20:12;99541.38;;;13.52;nan
63556;BME280;49700;48.072;7.800;2023-11-19T06:22:39;99546.41;;;13.55;nan
63556;BME280;49700;48.072;7.800;2023-11-19T06:25:05;99533.22;;;13.55;nan
63556;BME280;49700;48.072;7.800;2023-11-19T06:27:32;99523.38;;;13.57;nan
63556;BME280;49700;48.072;7.800;2023-11-19T06:29:57;99532.03;;;13.59;nan
63556;BME280;49700;48.072;7.800;2023-11-19T06:32:24;99534.44;;;13.62;nan
63556;BME280;49700;48.072;7.800;2023-11-19T06:34:49;99529.00;;;13.63;nan
63556;BME280;49700;48.072;7.800;2023-11-19T06:37:14;99511.25;;;13.65;nan
63556;BME280;49700;48.072;7.800;2023-11-19T06:39:40;99524.59;;;13.64;nan
63556;BME280;49700;48.072;7.800;2023-11-19T06:42:06;99519.06;;;13.67;nan
63556;BME280;49700;48.072;7.800;2023-11-19T06:44:32;99517.13;;;13.69;nan
63556;BME280;49700;48.072;7.800;2023-11-19T06:46:58;99532.75;;;13.72;nan
63556;BME280;49700;48.072;7.800;2023-11-19T06:49:23;99538.03;;;13.72;nan
63556;BME280;49700;48.072;7.800;2023-11-19T06:51:49;99533.47;;;13.74;nan
63556;BME280;49700;48.072;7.800;2023-11-19T06:54:15;99530.59;;;13.77;nan
63556;BME280;49700;48.072;7.800;2023-11-19T06:56:41;99538.97;;;13.82;nan
63556;BME280;49700;48.072;7.800;2023-11-19T06:59:07;99537.31;;;13.81;nan
63556;BME280;49700;48.072;7.800;2023-11-19T07:01:36;99537.31;;;13.81;nan
63556;BME280;49700;48.072;7.800;2023-11-19T07:04:02;99531.06;;;13.82;nan
63556;BME280;49700;48.072;7.800;2023-11-19T07:06:33;99554.59;;;13.85;nan
63556;BME280;49700;48.072;7.800;2023-11-19T07:08:59;99554.59;;;13.85;nan
63556;BME280;49700;48.072;7.800;2023-11-19T07:11:27;99548.34;;;13.86;nan
63556;BME280;49700;48.072;7.800;2023-11-19T07:13:53;99566.00;;;13.86;nan
63556;BME280;49700;48.072;7.800;2023-11-19T07:16:19;99562.28;;;13.88;nan
63556;BME280;49700;48.072;7.800;2023-11-19T07:18:46;99555.06;;;13.90;nan
63556;BME280;49700;48.072;7.800;2023-11-19T07:21:15;99557.59;;;13.92;nan
63556;BME280;49700;48.072;7.800;2023-11-19T07:23:40;99553.97;;;13.93;nan
63556;BME280;49700;48.072;7.800;2023-11-19T07:26:07;99561.06;;;13.92;nan
63556;BME280;49700;48.072;7.800;2023-11-19T07:28:36;99570.56;;;13.95;nan
63556;BME280;49700;48.072;7.800;2023-11-19T07:31:01;99566.97;;;13.96;nan
63556;BME280;49700;48.072;7.800;2023-11-19T07:33:27;99564.91;;;14.00;nan
63556;BME280;49700;48.072;7.800;2023-11-19T07:35:53;99563.94;;;14.01;nan
63556;BME280;49700;48.072;7.800;2023-11-19T07:38:18;99571.63;;;14.04;nan
63556;BME280;49700;48.072;7.800;2023-11-19T07:40:44;99570.53;;;14.06;nan
63556;BME280;49700;48.072;7.800;2023-11-19T07:43:09;99576.56;;;14.08;nan
63556;BME280;49700;48.072;7.800;2023-11-19T07:45:34;99591.31;;;14.11;nan
63556;BME280;49700;48.072;7.800;2023-11-19T07:48:00;99591.22;;;14.12;nan
63556;BME280;49700;48.072;7.800;2023-11-19T07:50:27;99608.50;;;14.16;nan
63556;BME280;49700;48.072;7.800;2023-11-19T07:52:53;99595.53;;;14.13;nan
63556;BME280;49700;48.072;7.800;2023-11-19T07:55:18;99596.50;;;14.12;nan
63556;BME280;49700;48.072;7.800;2023-11-19T07:57:44;99590.84;;;14.17;nan
63556;BME280;49700;48.072;7.800;2023-11-19T08:00:10;99599.47;;;14.19;nan
63556;BME280;49700;48.072;7.800;2023-11-19T08:02:39;99589.75;;;14.20;nan
63556;BME280;49700;48.072;7.800;2023-11-19T08:05:05;99593.84;;;14.24;nan
63556;BME280;49700;48.072;7.800;2023-11-19T08:07:31;99584.84;;;14.26;nan
63556;BME280;49700;48.072;7.800;2023-11-19T08:09:56;99598.53;;;14.31;nan
63556;BME280;49700;48.072;7.800;2023-11-19T08:12:22;99596.34;;;14.36;nan
63556;BME280;49700;48.072;7.800;2023-11-19T08:14:48;99598.13;;;14.36;nan
63556;BME280;49700;48.072;7.800;2023-11-19T08:17:14;99600.69;;;14.37;nan
63556;BME280;49700;48.072;7.800;2023-11-19T08:19:39;99599.59;;;14.40;nan
63556;BME280;49700;48.072;7.800;2023-11-19T08:22:05;99602.00;;;14.43;nan
63556;BME280;49700;48.072;7.800;2023-11-19T08:24:30;99594.78;;;14.45;nan
63556;BME280;49700;48.072;7.800;2023-11-19T08:26:56;99594.63;;;14.47;nan
63556;BME280;49700;48.072;7.800;2023-11-19T08:29:21;99592.84;;;14.47;nan
63556;BME280;49700;48.072;7.800;2023-11-19T08:31:47;99593.69;;;14.48;nan
63556;BME280;49700;48.072;7.800;2023-11-19T08:34:12;99593.44;;;14.51;nan
63556;BME280;49700;48.072;7.800;2023-11-19T08:36:37;99598.25;;;14.57;nan
63556;BME280;49700;48.072;7.800;2023-11-19T08:39:03;99602.34;;;14.61;nan
63556;BME280;49700;48.072;7.800;2023-11-19T08:41:28;99601.84;;;14.67;nan
63556;BME280;49700;48.072;7.800;2023-11-19T08:43:54;99604.50;;;14.67;nan
63556;BME280;49700;48.072;7.800;2023-11-19T08:46:19;99601.84;;;14.67;nan
63556;BME280;49700;48.072;7.800;2023-11-19T08:48:45;99591.53;;;14.64;nan
63556;BME280;49700;48.072;7.800;2023-11-19T08:51:12;99589.72;;;14.65;nan
63556;BME280;49700;48.072;7.800;2023-11-19T08:53:38;99587.19;;;14.63;nan
63556;BME280;49700;48.072;7.800;2023-11-19T08:56:03;99603.78;;;14.65;nan
63556;BME280;49700;48.072;7.800;2023-11-19T08:58:29;99592.13;;;14.68;nan
63556;BME280;49700;48.072;7.800;2023-11-19T09:00:55;99598.13;;;14.70;nan
63556;BME280;49700;48.072;7.800;2023-11-19T09:03:21;99596.22;;;14.72;nan
63556;BME280;49700;48.072;7.800;2023-11-19T09:05:46;99595.59;;;14.68;nan
63556;BME280;49700;48.072;7.800;2023-11-19T09:08:12;99596.44;;;14.69;nan
63556;BME280;49700;48.072;7.800;2023-11-19T09:10:37;99594.75;;;14.68;nan
63556;BME280;49700;48.072;7.800;2023-11-19T09:13:03;99597.41;;;14.68;nan
63556;BME280;49700;48.072;7.800;2023-11-19T09:15:29;99600.78;;;14.70;nan
63556;BME280;49700;48.072;7.800;2023-11-19T09:17:54;99604.25;;;14.70;nan
63556;BME280;49700;48.072;7.800;2023-11-19T09:20:20;99614.72;;;14.72;nan
63556;BME280;49700;48.072;7.800;2023-11-19T09:22:45;99606.91;;;14.70;nan
63556;BME280;49700;48.072;7.800;2023-11-19T09:25:11;99616.38;;;14.73;nan
63556;BME280;49700;48.072;7.800;2023-11-19T09:27:37;99616.50;;;14.71;nan
63556;BME280;49700;48.072;7.800;2023-11-19T09:30:03;99613.75;;;14.73;nan
63556;BME280;49700;48.072;7.800;2023-11-19T09:32:29;99616.38;;;14.73;nan
63556;BME280;49700;48.072;7.800;2023-11-19T09:34:54;99616.28;;;14.74;nan
63556;BME280;49700;48.072;7.800;2023-11-19T09:37:20;99606.63;;;14.73;nan
63556;BME280;49700;48.072;7.800;2023-11-19T09:39:45;99618.91;;;14.74;nan
63556;BME280;49700;48.072;7.800;2023-11-19T09:42:12;99612.75;;;14.74;nan
63556;BME280;49700;48.072;7.800;2023-11-19T09:44:40;99614.56;;;14.73;nan
63556;BME280;49700;48.072;7.800;2023-11-19T09:47:08;99607.47;;;14.74;nan
63556;BME280;49700;48.072;7.800;2023-11-19T09:49:35;99618.78;;;14.76;nan
63556;BME280;49700;48.072;7.800;2023-11-19T09:52:01;99608.91;;;14.78;nan
63556;BME280;49700;48.072;7.800;2023-11-19T09:54:28;99613.13;;;14.80;nan
63556;BME280;49700;48.072;7.800;2023-11-19T09:56:55;99604.94;;;14.83;nan
63556;BME280;49700;48.072;7.800;2023-11-19T09:59:25;99605.50;;;14.87;nan
63556;BME280;49700;48.072;7.800;2023-11-19T10:01:52;99590.25;;;14.91;nan
63556;BME280;49700;48.072;7.800;2023-11-19T10:04:19;99590.47;;;14.99;nan
63556;BME280;49700;48.072;7.800;2023-11-19T10:06:44;99604.13;;;15.04;nan
63556;BME280;49700;48.072;7.800;2023-11-19T10:09:12;99618.78;;;15.08;nan
63556;BME280;49700;48.072;7.800;2023-11-19T10:11:38;99607.25;;;15.09;nan
63556;BME280;49700;48.072;7.800;2023-11-19T10:14:03;99601.00;;;15.10;nan
63556;BME280;49700;48.072;7.800;2023-11-19T10:16:29;99603.66;;;15.10;nan
63556;BME280;49700;48.072;7.800;2023-11-19T10:18:59;99613.25;;;15.11;nan
63556;BME280;49700;48.072;7.800;2023-11-19T10:21:24;99593.78;;;15.12;nan
63556;BME280;49700;48.072;7.800;2023-11-19T10:23:54;99589.06;;;15.16;nan
63556;BME280;49700;48.072;7.800;2023-11-19T10:26:22;99581.97;;;15.16;nan
63556;BME280;49700;48.072;7.800;2023-11-19T10:28:49;99583.50;;;15.19;nan
63556;BME280;49700;48.072;7.800;2023-11-19T10:31:18;99576.03;;;15.24;nan
63556;BME280;49700;48.072;7.800;2023-11-19T10:33:44;99584.44;;;15.29;nan
63556;BME280;49700;48.072;7.800;2023-11-19T10:36:11;99584.03;;;15.34;nan
63556;BME280;49700;48.072;7.800;2023-11-19T10:38:53;99581.16;;;15.37;nan
63556;BME280;49700;48.072;7.800;2023-11-19T10:41:32;99578.97;;;15.42;nan
63556;BME280;49700;48.072;7.800;2023-11-19T10:43:58;99580.25;;;15.47;nan
63556;BME280;49700;48.072;7.800;2023-11-19T10:46:39;99579.16;;;15.50;nan
63556;BME280;49700;48.072;7.800;2023-11-19T10:49:06;99578.16;;;15.51;nan
63556;BME280;49700;48.072;7.800;2023-11-19T10:51:32;99577.91;;;15.54;nan
63556;BME280;49700;48.072;7.800;2023-11-19T10:54:02;99578.88;;;15.53;nan
63556;BME280;49700;48.072;7.800;2023-11-19T10:56:31;99571.22;;;15.50;nan
63556;BME280;49700;48.072;7.800;2023-11-19T10:58:59;99578.28;;;15.49;nan
63556;BME280;49700;48.072;7.800;2023-11-19T11:01:29;99574.94;;;15.47;nan
63556;BME280;49700;48.072;7.800;2023-11-19T11:03:59;99575.78;;;15.48;nan
63556;BME280;49700;48.072;7.800;2023-11-19T11:06:27;99566.88;;;15.49;nan
63556;BME280;49700;48.072;7.800;2023-11-19T11:08:54;99565.75;;;15.52;nan
63556;BME280;49700;48.072;7.800;2023-11-19T11:11:20;99567.56;;;15.51;nan
63556;BME280;49700;48.072;7.800;2023-11-19T11:13:50;99569.50;;;15.49;nan
63556;BME280;49700;48.072;7.800;2023-11-19T11:16:19;99567.97;;;15.46;nan
63556;BME280;49700;48.072;7.800;2023-11-19T11:18:46;99573.25;;;15.46;nan
63556;BME280;49700;48.072;7.800;2023-11-19T11:21:17;99565.31;;;15.46;nan
63556;BME280;49700;48.072;7.800;2023-11-19T11:24:26;99559.19;;;15.46;nan
63556;BME280;49700;48.072;7.800;2023-11-19T11:32:37;99561.84;;;15.46;nan
63556;BME280;49700;48.072;7.800;2023-11-19T11:35:24;99546.66;;;15.48;nan
63556;BME280;49700;48.072;7.800;2023-11-19T11:38:00;99555.63;;;15.57;nan
63556;BME280;49700;48.072;7.800;2023-11-19T11:40:27;99554.97;;;15.64;nan
63556;BME280;49700;48.072;7.800;2023-11-19T11:42:52;99559.78;;;15.70;nan
63556;BME280;49700;48.072;7.800;2023-11-19T11:45:19;99558.81;;;15.72;nan
63556;BME280;49700;48.072;7.800;2023-11-19T11:50:20;99558.81;;;15.72;nan
63556;BME280;49700;48.072;7.800;2023-11-19T11:58:21;99543.88;;;15.70;nan
63556;BME280;49700;48.072;7.800;2023-11-19T12:00:48;99533.44;;;15.69;nan
63556;BME280;49700;48.072;7.800;2023-11-19T12:03:14;99528.00;;;15.70;nan
63556;BME280;49700;48.072;7.800;2023-11-19T12:05:44;99531.47;;;15.71;nan
63556;BME280;49700;48.072;7.800;2023-11-19T12:08:11;99531.72;;;15.68;nan
63556;BME280;49700;48.072;7.800;2023-11-19T12:10:44;99535.09;;;15.70;nan
63556;BME280;49700;48.072;7.800;2023-11-19T12:13:10;99523.69;;;15.69;nan
63556;BME280;49700;48.072;7.800;2023-11-19T12:18:23;99526.06;;;15.73;nan
63556;BME280;49700;48.072;7.800;2023-11-19T12:20:49;99529.28;;;15.76;nan
63556;BME280;49700;48.072;7.800;2023-11-19T12:23:14;99525.97;;;15.84;nan
63556;BME280;49700;48.072;7.800;2023-11-19T12:25:40;99527.13;;;15.91;nan
63556;BME280;49700;48.072;7.800;2023-11-19T12:28:11;99531.75;;;15.99;nan
63556;BME280;49700;48.072;7.800;2023-11-19T12:30:37;99533.03;;;16.04;nan
63556;BME280;49700;48.072;7.800;2023-11-19T12:33:10;99525.06;;;16.04;nan
63556;BME280;49700;48.072;7.800;2023-11-19T12:35:40;99526.75;;;16.05;nan
63556;BME280;49700;48.072;7.800;2023-11-19T12:38:05;99525.91;;;16.05;nan
63556;BME280;49700;48.072;7.800;2023-11-19T12:40:31;99524.63;;;15.99;nan
63556;BME280;49700;48.072;7.800;2023-11-19T12:42:57;99517.91;;;15.95;nan
63556;BME280;49700;48.072;7.800;2023-11-19T12:45:23;99520.72;;;15.93;nan
63556;BME280;49700;48.072;7.800;2023-11-19T12:47:49;99524.31;;;15.92;nan
63556;BME280;49700;48.072;7.800;2023-11-19T12:50:20;99515.25;;;15.95;nan
63556;BME280;49700;48.072;7.800;2023-11-19T12:52:56;99520.56;;;15.95;nan
63556;BME280;49700;48.072;7.800;2023-11-19T12:55:26;99512.63;;;15.95;nan
63556;BME280;49700;48.072;7.800;2023-11-19T12:57:52;99507.31;;;15.95;nan
63556;BME280;49700;48.072;7.800;2023-11-19T13:00:24;99505.09;;;16.00;nan
63556;BME280;49700;48.072;7.800;2023-11-19T13:02:54;99498.31;;;16.07;nan
63556;BME280;49700;48.072;7.800;2023-11-19T13:08:04;99478.22;;;16.14;nan
63556;BME280;49700;48.072;7.800;2023-11-19T13:10:49;99475.56;;;16.14;nan
63556;BME280;49700;48.072;7.800;2023-11-19T13:13:19;99474.63;;;16.15;nan
63556;BME280;49700;48.072;7.800;2023-11-19T13:15:45;99475.56;;;16.14;nan
63556;BME280;49700;48.072;7.800;2023-11-19T13:18:11;99482.56;;;16.15;nan
63556;BME280;49700;48.072;7.800;2023-11-19T13:20:37;99473.19;;;16.11;nan
63556;BME280;49700;48.072;7.800;2023-11-19T13:23:05;99476.13;;;16.08;nan
63556;BME280;49700;48.072;7.800;2023-11-19T13:25:31;99472.91;;;16.05;nan
63556;BME280;49700;48.072;7.800;2023-11-19T13:28:00;99477.22;;;16.06;nan
63556;BME280;49700;48.072;7.800;2023-11-19T13:30:26;99455.63;;;16.10;nan
63556;BME280;49700;48.072;7.800;2023-11-19T13:32:52;99458.00;;;16.13;nan
63556;BME280;49700;48.072;7.800;2023-11-19T13:35:18;99449.78;;;16.17;nan
63556;BME280;49700;48.072;7.800;2023-11-19T13:37:44;99444.34;;;16.18;nan
63556;BME280;49700;48.072;7.800;2023-11-19T13:40:10;99447.97;;;16.17;nan